Time,TemperatureF,DewpointF,PressureIn,WindDirection,WindDirectionDegrees,WindSpeedMPH,WindSpeedGustMPH,Humidity,HourlyPrecipIn,Conditions,Clouds,dailyrainin,SoftwareType,DateUTC
2013-03-18 00:01:00,67.9,63.6,29.67,SE,145,10.4,10.4,86,0.00,CLR,,0.00,WeatherDisplay:10.37,2013-03-18 05:01:00,
2013-03-18 00:06:00,67.7,63.4,29.67,SE,146,4.6,4.6,86,0.00,CLR,,0.00,WeatherDisplay:10.37,2013-03-18 05:06:00,
2013-03-18 00:11:00,67.5,63.5,29.68,SE,145,5.8,5.8,87,0.00,CLR,,0.00,WeatherDisplay:10.37,2013-03-18 05:11:00,
2013-03-18 00:16:00,67.4,63.4,29.68,SE,144,9.2,9.2,87,0.00,CLR,,0.00,WeatherDisplay:10.37,2013-03-18 05:16:00,
2013-03-18 00:21:00,67.3,63.6,29.68,SE,144,4.6,4.6,88,0.00,CLR,,0.00,WeatherDisplay:10.37,2013-03-18 05:21:00,
2013-03-18 00:25:00,67.2,63.5,29.67,SE,146,6.9,6.9,88,0.00,CLR,,0.00,WeatherDisplay:10.37,2013-03-18 05:25:00,
2013-03-18 00:30:00,67.1,63.4,29.67,SSE,150,9.2,9.2,88,0.00,CLR,,0.00,WeatherDisplay:10.37,2013-03-18 05:30:00,
2013-03-18 00:35:00,67.0,63.6,29.67,SSE,157,10.4,10.4,89,0.00,CLR,,0.00,WeatherDisplay:10.37,2013-03-18 05:35:00,
2013-03-18 00:40:00,66.9,63.6,29.67,SSE,155,5.8,5.8,89,0.00,CLR,,0.00,WeatherDisplay:10.37,2013-03-18 05:40:00,
2013-03-18 00:45:00,66.9,63.6,29.67,SSE,150,6.9,6.9,89,0.00,CLR,,0.00,WeatherDisplay:10.37,2013-03-18 05:45:00,
2013-03-18 00:50:00,66.8,63.5,29.67,SSE,148,9.2,9.2,89,0.00,CLR,,0.00,WeatherDisplay:10.37,2013-03-18 05:50:00,
2013-03-18 00:55:00,66.7,63.7,29.67,SSE,149,9.2,9.2,90,0.00,CLR,,0.00,WeatherDisplay:10.37,2013-03-18 05:55:00,
2013-03-18 01:00:00,66.7,63.7,29.67,SSE,152,11.5,11.5,90,0.00,CLR,,0.00,WeatherDisplay:10.37,2013-03-18 06:00:00,
2013-03-18 01:05:00,66.7,63.7,29.67,SSE,156,6.9,6.9,90,0.00,CLR,,0.00,WeatherDisplay:10.37,2013-03-18 06:05:00,
2013-03-18 01:10:00,66.7,63.7,29.67,SSE,149,10.4,10.4,90,0.00,CLR,,0.00,WeatherDisplay:10.37,2013-03-18 06:10:00,
2013-03-18 01:15:00,66.7,63.7,29.67,SSE,159,15.0,15.0,90,0.00,CLR,,0.00,WeatherDisplay:10.37,2013-03-18 06:15:00,
2013-03-18 01:20:00,66.6,63.6,29.67,SSE,156,10.4,10.4,90,0.00,CLR,,0.00,WeatherDisplay:10.37,2013-03-18 06:20:00,
2013-03-18 01:25:00,66.6,63.6,29.68,SSE,166,3.5,3.5,90,0.00,CLR,,0.00,WeatherDisplay:10.37,2013-03-18 06:25:00,
2013-03-18 01:30:00,66.6,63.6,29.67,SSE,165,8.0,8.0,90,0.00,CLR,,0.00,WeatherDisplay:10.37,2013-03-18 06:30:00,
2013-03-18 01:36:00,66.5,63.8,29.67,South,176,11.5,11.5,91,0.00,CLR,,0.00,WeatherDisplay:10.37,2013-03-18 06:36:00,
2013-03-18 01:41:00,66.4,63.7,29.68,SSE,163,6.9,6.9,91,0.00,CLR,,0.00,WeatherDisplay:10.37,2013-03-18 06:41:00,
2013-03-18 01:46:00,66.4,63.7,29.68,SSE,162,9.2,9.2,91,0.00,CLR,,0.00,WeatherDisplay:10.37,2013-03-18 06:46:00,
2013-03-18 01:51:00,66.3,63.6,29.68,South,169,11.5,11.5,91,0.00,CLR,,0.00,WeatherDisplay:10.37,2013-03-18 06:51:00,
2013-03-18 01:56:00,66.3,63.6,29.68,SSE,166,11.5,11.5,91,0.00,CLR,,0.00,WeatherDisplay:10.37,2013-03-18 06:56:00,
2013-03-18 02:01:00,66.2,63.5,29.68,SSE,165,4.6,4.6,91,0.00,CLR,,0.00,WeatherDisplay:10.37,2013-03-18 07:01:00,
2013-03-18 02:06:00,66.2,63.5,29.68,SSE,167,3.5,3.5,91,0.00,CLR,,0.00,WeatherDisplay:10.37,2013-03-18 07:06:00,
2013-03-18 02:11:00,66.2,63.5,29.68,SSE,167,9.2,9.2,91,0.00,CLR,,0.00,WeatherDisplay:10.37,2013-03-18 07:11:00,
2013-03-18 02:16:00,66.2,63.5,29.68,South,175,11.5,11.5,91,0.00,CLR,,0.00,WeatherDisplay:10.37,2013-03-18 07:16:00,
2013-03-18 02:21:00,66.1,63.4,29.67,SSE,166,10.4,10.4,91,0.00,CLR,,0.00,WeatherDisplay:10.37,2013-03-18 07:21:00,
2013-03-18 02:26:00,66.0,63.3,29.68,South,172,11.5,11.5,91,0.00,CLR,,0.00,WeatherDisplay:10.37,2013-03-18 07:26:00,
2013-03-18 02:31:00,65.9,63.2,29.68,South,170,5.8,5.8,91,0.00,CLR,,0.00,WeatherDisplay:10.37,2013-03-18 07:31:00,
2013-03-18 02:36:00,65.9,63.2,29.68,South,171,4.6,4.6,91,0.00,CLR,,0.00,WeatherDisplay:10.37,2013-03-18 07:36:00,
2013-03-18 02:41:00,65.9,63.2,29.68,South,171,4.6,4.6,91,0.00,CLR,,0.00,WeatherDisplay:10.37,2013-03-18 07:41:00,
2013-03-18 02:45:00,65.8,63.1,29.69,South,171,5.8,5.8,91,0.00,CLR,,0.00,WeatherDisplay:10.37,2013-03-18 07:45:00,
2013-03-18 02:50:00,65.8,63.1,29.69,South,171,4.6,4.6,91,0.00,CLR,,0.00,WeatherDisplay:10.37,2013-03-18 07:50:00,
2013-03-18 02:55:00,65.8,63.1,29.69,South,172,6.9,6.9,91,0.00,CLR,,0.00,WeatherDisplay:10.37,2013-03-18 07:55:00,
2013-03-18 03:00:00,65.8,63.1,29.69,South,176,4.6,4.6,91,0.00,CLR,,0.00,WeatherDisplay:10.37,2013-03-18 08:00:00,
2013-03-18 03:05:00,65.8,63.1,29.69,South,177,6.9,6.9,91,0.00,CLR,,0.00,WeatherDisplay:10.37,2013-03-18 08:05:00,
2013-03-18 03:10:00,65.8,63.1,29.69,South,178,3.5,3.5,91,0.00,CLR,,0.00,WeatherDisplay:10.37,2013-03-18 08:10:00,
2013-03-18 03:15:00,65.8,63.1,29.69,South,176,8.1,8.1,91,0.00,CLR,,0.00,WeatherDisplay:10.37,2013-03-18 08:15:00,
2013-03-18 03:20:00,65.8,63.1,29.69,South,175,9.2,9.2,91,0.00,CLR,,0.00,WeatherDisplay:10.37,2013-03-18 08:20:00,
2013-03-18 03:25:00,65.8,63.1,29.69,South,175,3.5,3.5,91,0.00,CLR,,0.00,WeatherDisplay:10.37,2013-03-18 08:25:00,
2013-03-18 03:30:00,65.8,63.1,29.70,South,175,0.0,0.0,91,0.00,CLR,,0.00,WeatherDisplay:10.37,2013-03-18 08:30:00,
2013-03-18 03:35:00,65.8,63.1,29.70,South,175,0.0,0.0,91,0.00,CLR,,0.00,WeatherDisplay:10.37,2013-03-18 08:35:00,
2013-03-18 03:40:00,65.7,63.0,29.70,South,175,5.8,5.8,91,0.00,CLR,,0.00,WeatherDisplay:10.37,2013-03-18 08:40:00,
2013-03-18 03:45:00,65.7,63.0,29.70,South,175,1.2,0.0,91,0.00,CLR,,0.00,WeatherDisplay:10.37,2013-03-18 08:45:00,
2013-03-18 03:50:00,65.7,63.0,29.70,South,175,4.6,4.6,91,0.00,CLR,,0.00,WeatherDisplay:10.37,2013-03-18 08:50:00,
2013-03-18 03:55:00,65.7,63.0,29.70,South,178,4.6,4.6,91,0.00,CLR,,0.00,WeatherDisplay:10.37,2013-03-18 08:55:00,
2013-03-18 04:00:00,65.6,62.9,29.70,South,180,4.6,4.6,91,0.00,CLR,,0.00,WeatherDisplay:10.37,2013-03-18 09:00:00,
2013-03-18 04:05:00,65.6,62.9,29.70,South,180,3.5,3.5,91,0.00,CLR,,0.00,WeatherDisplay:10.37,2013-03-18 09:05:00,
2013-03-18 04:10:00,65.6,62.9,29.70,South,180,0.0,0.0,91,0.00,CLR,,0.00,WeatherDisplay:10.37,2013-03-18 09:10:00,
2013-03-18 04:15:00,65.6,62.9,29.70,South,179,0.0,0.0,91,0.00,CLR,,0.00,WeatherDisplay:10.37,2013-03-18 09:15:00,
2013-03-18 04:20:00,65.6,62.9,29.70,South,180,0.0,0.0,91,0.00,CLR,,0.00,WeatherDisplay:10.37,2013-03-18 09:20:00,
2013-03-18 04:25:00,65.6,62.9,29.70,South,180,0.0,0.0,91,0.00,CLR,,0.00,WeatherDisplay:10.37,2013-03-18 09:25:00,
2013-03-18 04:30:00,65.5,62.8,29.71,South,179,0.0,0.0,91,0.00,CLR,,0.00,WeatherDisplay:10.37,2013-03-18 09:30:00,
2013-03-18 04:35:00,65.5,62.8,29.70,South,179,0.0,0.0,91,0.00,CLR,,0.00,WeatherDisplay:10.37,2013-03-18 09:35:00,
2013-03-18 04:40:00,65.4,62.7,29.70,South,180,0.0,0.0,91,0.00,CLR,,0.00,WeatherDisplay:10.37,2013-03-18 09:40:00,
2013-03-18 04:45:00,65.4,62.7,29.71,South,180,0.0,0.0,91,0.00,CLR,,0.00,WeatherDisplay:10.37,2013-03-18 09:45:00,
2013-03-18 04:50:00,65.3,62.6,29.71,South,180,0.0,0.0,91,0.00,CLR,,0.00,WeatherDisplay:10.37,2013-03-18 09:50:00,
2013-03-18 04:55:00,65.2,62.5,29.71,South,179,0.0,0.0,91,0.00,CLR,,0.00,WeatherDisplay:10.37,2013-03-18 09:55:00,
2013-03-18 05:00:00,65.1,62.4,29.71,South,180,0.0,0.0,91,0.00,CLR,,0.00,WeatherDisplay:10.37,2013-03-18 10:00:00,
2013-03-18 05:05:00,64.9,62.2,29.71,South,179,0.0,0.0,91,0.00,CLR,,0.00,WeatherDisplay:10.37,2013-03-18 10:05:00,
2013-03-18 05:10:00,64.7,62.0,29.71,South,180,0.0,0.0,91,0.00,CLR,,0.00,WeatherDisplay:10.37,2013-03-18 10:10:00,
2013-03-18 05:15:00,64.6,61.6,29.71,South,180,0.0,0.0,90,0.00,CLR,,0.00,WeatherDisplay:10.37,2013-03-18 10:15:00,
2013-03-18 05:20:00,64.4,61.4,29.71,South,180,0.0,0.0,90,0.00,CLR,,0.00,WeatherDisplay:10.37,2013-03-18 10:20:00,
2013-03-18 05:25:00,64.3,61.6,29.71,South,180,3.5,3.5,91,0.00,CLR,,0.00,WeatherDisplay:10.37,2013-03-18 10:25:00,
2013-03-18 05:30:00,64.2,61.5,29.71,South,180,2.3,0.0,91,0.00,CLR,,0.00,WeatherDisplay:10.37,2013-03-18 10:30:00,
2013-03-18 05:35:00,64.2,61.5,29.71,South,180,3.5,3.5,91,0.00,CLR,,0.00,WeatherDisplay:10.37,2013-03-18 10:35:00,
2013-03-18 05:40:00,64.1,61.4,29.71,South,179,0.0,0.0,91,0.00,CLR,,0.00,WeatherDisplay:10.37,2013-03-18 10:40:00,
2013-03-18 05:45:00,64.1,61.4,29.72,South,179,0.0,0.0,91,0.00,CLR,,0.00,WeatherDisplay:10.37,2013-03-18 10:45:00,
2013-03-18 05:50:00,64.0,61.3,29.71,South,180,3.5,3.5,91,0.00,CLR,,0.00,WeatherDisplay:10.37,2013-03-18 10:50:00,
2013-03-18 05:55:00,64.0,61.3,29.72,South,180,0.0,0.0,91,0.00,CLR,,0.00,WeatherDisplay:10.37,2013-03-18 10:55:00,
2013-03-18 06:00:00,63.9,61.2,29.72,South,179,0.0,0.0,91,0.00,CLR,,0.00,WeatherDisplay:10.37,2013-03-18 11:00:00,
2013-03-18 06:05:00,63.8,61.1,29.72,South,179,0.0,0.0,91,0.00,CLR,,0.00,WeatherDisplay:10.37,2013-03-18 11:05:00,
2013-03-18 06:10:00,63.7,61.0,29.72,South,180,0.0,0.0,91,0.00,CLR,,0.00,WeatherDisplay:10.37,2013-03-18 11:10:00,
2013-03-18 06:15:00,63.6,60.9,29.72,South,180,0.0,0.0,91,0.00,CLR,,0.00,WeatherDisplay:10.37,2013-03-18 11:15:00,
2013-03-18 06:20:00,63.5,60.8,29.72,South,179,0.0,0.0,91,0.00,CLR,,0.00,WeatherDisplay:10.37,2013-03-18 11:20:00,
2013-03-18 06:25:00,63.5,60.8,29.72,South,179,0.0,0.0,91,0.00,CLR,,0.00,WeatherDisplay:10.37,2013-03-18 11:25:00,
2013-03-18 06:30:00,63.3,60.6,29.72,South,180,0.0,0.0,91,0.00,CLR,,0.00,WeatherDisplay:10.37,2013-03-18 11:30:00,
2013-03-18 06:35:00,63.3,60.9,29.72,South,180,0.0,0.0,92,0.00,CLR,,0.00,WeatherDisplay:10.37,2013-03-18 11:35:00,
2013-03-18 06:40:00,63.2,60.8,29.72,South,179,0.0,0.0,92,0.00,CLR,,0.00,WeatherDisplay:10.37,2013-03-18 11:40:00,
2013-03-18 06:45:00,63.1,60.7,29.73,South,180,0.0,0.0,92,0.00,CLR,,0.00,WeatherDisplay:10.37,2013-03-18 11:45:00,
2013-03-18 06:50:00,63.2,60.8,29.73,South,179,0.0,0.0,92,0.00,CLR,,0.00,WeatherDisplay:10.37,2013-03-18 11:50:00,
2013-03-18 06:55:00,63.2,60.8,29.74,South,180,0.0,0.0,92,0.00,CLR,,0.00,WeatherDisplay:10.37,2013-03-18 11:55:00,
2013-03-18 07:00:00,63.2,60.8,29.74,South,180,0.0,0.0,92,0.00,CLR,,0.00,WeatherDisplay:10.37,2013-03-18 12:00:00,
2013-03-18 07:06:00,63.3,60.9,29.74,South,180,0.0,0.0,92,0.00,CLR,,0.00,WeatherDisplay:10.37,2013-03-18 12:06:00,
2013-03-18 07:11:00,63.4,61.3,29.74,South,180,0.0,0.0,93,0.00,CLR,,0.00,WeatherDisplay:10.37,2013-03-18 12:11:00,
2013-03-18 07:16:00,63.4,61.3,29.74,South,180,0.0,0.0,93,0.00,CLR,,0.00,WeatherDisplay:10.37,2013-03-18 12:16:00,
2013-03-18 07:21:00,63.4,61.3,29.74,South,180,0.0,0.0,93,0.00,CLR,,0.00,WeatherDisplay:10.37,2013-03-18 12:21:00,
2013-03-18 07:26:00,63.3,61.2,29.74,South,180,0.0,0.0,93,0.00,CLR,,0.00,WeatherDisplay:10.37,2013-03-18 12:26:00,
2013-03-18 07:31:00,63.4,61.3,29.75,South,179,0.0,0.0,93,0.00,CLR,,0.00,WeatherDisplay:10.37,2013-03-18 12:31:00,
2013-03-18 07:36:00,63.6,61.5,29.75,South,180,0.0,0.0,93,0.00,CLR,,0.00,WeatherDisplay:10.37,2013-03-18 12:36:00,
2013-03-18 07:41:00,63.7,61.6,29.75,South,180,0.0,0.0,93,0.00,CLR,,0.00,WeatherDisplay:10.37,2013-03-18 12:41:00,
2013-03-18 07:46:00,63.7,61.6,29.75,South,180,0.0,0.0,93,0.00,CLR,,0.00,WeatherDisplay:10.37,2013-03-18 12:46:00,
2013-03-18 07:51:00,63.7,61.6,29.74,South,179,0.0,0.0,93,0.00,CLR,,0.00,WeatherDisplay:10.37,2013-03-18 12:51:00,
2013-03-18 07:56:00,63.7,61.6,29.75,South,180,0.0,0.0,93,0.00,CLR,,0.00,WeatherDisplay:10.37,2013-03-18 12:56:00,
2013-03-18 08:02:00,63.7,61.6,29.75,South,180,0.0,0.0,93,0.00,CLR,,0.00,WeatherDisplay:10.37,2013-03-18 13:02:00,
2013-03-18 08:07:00,63.8,61.7,29.74,South,179,2.3,2.3,93,0.00,CLR,,0.00,WeatherDisplay:10.37,2013-03-18 13:07:00,
2013-03-18 08:12:00,63.8,61.7,29.74,South,180,0.0,0.0,93,0.00,CLR,,0.00,WeatherDisplay:10.37,2013-03-18 13:12:00,
2013-03-18 08:17:00,63.8,61.7,29.74,South,180,0.0,0.0,93,0.00,CLR,,0.00,WeatherDisplay:10.37,2013-03-18 13:17:00,
2013-03-18 08:22:00,63.9,61.8,29.74,South,180,0.0,0.0,93,0.00,CLR,,0.00,WeatherDisplay:10.37,2013-03-18 13:22:00,
2013-03-18 08:27:00,63.9,61.8,29.74,South,179,0.0,0.0,93,0.00,CLR,,0.00,WeatherDisplay:10.37,2013-03-18 13:27:00,
2013-03-18 08:32:00,64.0,61.9,29.74,South,180,0.0,0.0,93,0.00,CLR,,0.00,WeatherDisplay:10.37,2013-03-18 13:32:00,
2013-03-18 08:37:00,64.1,62.0,29.75,South,180,2.3,2.3,93,0.00,CLR,,0.00,WeatherDisplay:10.37,2013-03-18 13:37:00,
2013-03-18 08:42:00,64.3,62.2,29.75,South,180,3.5,3.5,93,0.00,CLR,,0.00,WeatherDisplay:10.37,2013-03-18 13:42:00,
2013-03-18 08:47:00,64.5,62.4,29.75,South,180,0.0,0.0,93,0.00,CLR,,0.00,WeatherDisplay:10.37,2013-03-18 13:47:00,
2013-03-18 08:52:00,64.8,63.0,29.75,South,186,9.2,9.2,94,0.00,CLR,,0.00,WeatherDisplay:10.37,2013-03-18 13:52:00,
2013-03-18 08:57:00,64.9,63.1,29.75,South,186,5.8,5.8,94,0.00,CLR,,0.00,WeatherDisplay:10.37,2013-03-18 13:57:00,
2013-03-18 09:02:00,65.1,63.0,29.76,South,186,0.0,0.0,93,0.00,CLR,,0.00,WeatherDisplay:10.37,2013-03-18 14:02:00,
2013-03-18 09:07:00,65.2,63.1,29.76,South,186,4.0,0.0,93,0.00,CLR,,0.00,WeatherDisplay:10.37,2013-03-18 14:07:00,
2013-03-18 09:12:00,65.2,63.1,29.76,South,186,0.0,0.0,93,0.00,CLR,,0.00,WeatherDisplay:10.37,2013-03-18 14:12:00,
2013-03-18 09:17:00,65.3,63.2,29.76,South,186,0.0,0.0,93,0.00,CLR,,0.00,WeatherDisplay:10.37,2013-03-18 14:17:00,
2013-03-18 09:22:00,65.5,63.4,29.76,South,186,0.0,0.0,93,0.00,CLR,,0.00,WeatherDisplay:10.37,2013-03-18 14:22:00,
2013-03-18 09:27:00,65.7,63.6,29.76,South,186,1.0,1.0,93,0.00,CLR,,0.00,WeatherDisplay:10.37,2013-03-18 14:27:00,
2013-03-18 09:32:00,65.9,63.8,29.76,South,186,0.0,0.0,93,0.00,CLR,,0.00,WeatherDisplay:10.37,2013-03-18 14:32:00,
2013-03-18 09:37:00,66.0,63.9,29.76,South,186,0.0,0.0,93,0.00,CLR,,0.00,WeatherDisplay:10.37,2013-03-18 14:37:00,
2013-03-18 09:42:00,66.3,64.2,29.76,South,186,0.0,1.1,93,0.00,CLR,,0.00,WeatherDisplay:10.37,2013-03-18 14:42:00,
2013-03-18 09:47:00,66.6,64.5,29.77,South,186,1.2,0.0,93,0.00,CLR,,0.00,WeatherDisplay:10.37,2013-03-18 14:47:00,
2013-03-18 09:52:00,67.0,64.9,29.77,South,186,0.0,0.0,93,0.00,CLR,,0.00,WeatherDisplay:10.37,2013-03-18 14:52:00,
2013-03-18 09:57:00,67.5,65.4,29.77,South,186,5.8,5.8,93,0.00,CLR,,0.00,WeatherDisplay:10.37,2013-03-18 14:57:00,
2013-03-18 10:02:00,67.8,65.4,29.77,South,187,3.5,3.5,92,0.00,CLR,,0.00,WeatherDisplay:10.37,2013-03-18 15:02:00,
2013-03-18 10:07:00,68.4,65.7,29.77,South,186,6.0,6.0,91,0.00,CLR,,0.00,WeatherDisplay:10.37,2013-03-18 15:07:00,
2013-03-18 10:12:00,68.9,65.8,29.77,South,186,4.6,4.6,90,0.00,CLR,,0.00,WeatherDisplay:10.37,2013-03-18 15:12:00,
2013-03-18 10:17:00,69.5,65.8,29.77,South,187,6.9,6.9,88,0.00,CLR,,0.00,WeatherDisplay:10.37,2013-03-18 15:17:00,
2013-03-18 10:22:00,70.2,66.1,29.77,South,187,2.3,0.0,87,0.00,CLR,,0.00,WeatherDisplay:10.37,2013-03-18 15:22:00,
2013-03-18 10:27:00,70.5,65.8,29.77,SSW,196,6.9,6.9,85,0.00,CLR,,0.00,WeatherDisplay:10.37,2013-03-18 15:27:00,
2013-03-18 10:32:00,71.1,66.0,29.77,SSW,203,9.2,9.2,84,0.00,CLR,,0.00,WeatherDisplay:10.37,2013-03-18 15:32:00,
2013-03-18 10:37:00,71.6,65.8,29.77,SW,214,7.0,7.0,82,0.00,CLR,,0.00,WeatherDisplay:10.37,2013-03-18 15:37:00,
2013-03-18 10:42:00,72.1,65.9,29.77,SSW,213,3.5,3.5,81,0.00,CLR,,0.00,WeatherDisplay:10.37,2013-03-18 15:42:00,
2013-03-18 10:47:00,72.7,66.2,29.77,SSW,213,5.8,5.8,80,0.00,CLR,,0.00,WeatherDisplay:10.37,2013-03-18 15:47:00,
2013-03-18 10:52:00,73.6,65.6,29.77,SW,215,10.4,10.4,76,0.00,CLR,,0.00,WeatherDisplay:10.37,2013-03-18 15:52:00,
2013-03-18 10:57:00,74.1,65.7,29.77,SW,216,3.5,3.5,75,0.00,CLR,,0.00,WeatherDisplay:10.37,2013-03-18 15:57:00,
2013-03-18 11:02:00,74.7,65.5,29.77,SW,216,5.0,5.0,73,0.00,CLR,,0.00,WeatherDisplay:10.37,2013-03-18 16:02:00,
2013-03-18 11:07:00,75.3,65.6,29.76,SW,217,3.5,3.5,72,0.00,CLR,,0.00,WeatherDisplay:10.37,2013-03-18 16:07:00,
2013-03-18 11:12:00,76.1,64.8,29.76,SW,232,3.5,4.1,68,0.00,CLR,,0.00,WeatherDisplay:10.37,2013-03-18 16:12:00,
2013-03-18 11:17:00,76.7,64.5,29.76,WSW,240,2.3,2.3,66,0.00,CLR,,0.00,WeatherDisplay:10.37,2013-03-18 16:17:00,
2013-03-18 11:22:00,77.5,64.8,29.76,WSW,240,2.3,2.3,65,0.00,CLR,,0.00,WeatherDisplay:10.37,2013-03-18 16:22:00,
2013-03-18 11:27:00,78.3,63.3,29.76,WSW,240,4.0,4.0,60,0.00,CLR,,0.00,WeatherDisplay:10.37,2013-03-18 16:27:00,
2013-03-18 11:32:00,78.8,62.8,29.76,WSW,241,4.6,4.6,58,0.00,CLR,,0.00,WeatherDisplay:10.37,2013-03-18 16:32:00,
2013-03-18 11:37:00,79.5,59.2,29.75,West,261,11.5,11.5,50,0.00,CLR,,0.00,WeatherDisplay:10.37,2013-03-18 16:37:00,
2013-03-18 11:43:00,80.8,55.6,29.75,WNW,296,11.5,11.5,42,0.00,CLR,,0.00,WeatherDisplay:10.37,2013-03-18 16:43:00,
2013-03-18 11:48:00,81.7,54.3,29.75,NW,305,6.9,6.9,39,0.00,CLR,,0.00,WeatherDisplay:10.37,2013-03-18 16:48:00,
2013-03-18 11:52:00,82.4,53.5,29.75,NW,323,3.5,3.5,37,0.00,CLR,,0.00,WeatherDisplay:10.37,2013-03-18 16:52:00,
2013-03-18 11:57:00,83.2,45.7,29.75,NNW,331,9.2,9.2,27,0.00,CLR,,0.00,WeatherDisplay:10.37,2013-03-18 16:57:00,
2013-03-18 12:02:00,84.2,45.6,29.75,NNW,331,6.9,6.9,26,0.00,CLR,,0.00,WeatherDisplay:10.37,2013-03-18 17:02:00,
2013-03-18 12:08:00,85.0,43.0,29.75,NW,311,2.3,2.5,23,0.00,CLR,,0.00,WeatherDisplay:10.37,2013-03-18 17:08:00,
2013-03-18 12:13:00,85.5,41.1,29.75,WNW,296,11.5,11.5,21,0.00,CLR,,0.00,WeatherDisplay:10.37,2013-03-18 17:13:00,
2013-03-18 12:18:00,85.6,41.2,29.75,WNW,298,5.0,5.0,21,0.00,CLR,,0.00,WeatherDisplay:10.37,2013-03-18 17:18:00,
2013-03-18 12:23:00,85.8,41.3,29.75,NNW,329,11.5,11.5,21,0.00,CLR,,0.00,WeatherDisplay:10.37,2013-03-18 17:23:00,
2013-03-18 12:28:00,86.1,42.8,29.75,WNW,290,9.2,9.2,22,0.00,CLR,,0.00,WeatherDisplay:10.37,2013-03-18 17:28:00,
2013-03-18 12:33:00,86.5,43.1,29.75,West,280,13.8,13.8,22,0.00,CLR,,0.00,WeatherDisplay:10.37,2013-03-18 17:33:00,
2013-03-18 12:38:00,86.7,42.1,29.75,WNW,295,10.4,10.4,21,0.00,CLR,,0.00,WeatherDisplay:10.37,2013-03-18 17:38:00,
2013-03-18 12:43:00,86.7,43.3,29.75,NNW,332,15.0,15.0,22,0.00,CLR,,0.00,WeatherDisplay:10.37,2013-03-18 17:43:00,
2013-03-18 12:48:00,86.9,44.6,29.75,NW,313,2.3,2.3,23,0.00,CLR,,0.00,WeatherDisplay:10.37,2013-03-18 17:48:00,
2013-03-18 12:53:00,87.1,42.4,29.75,NW,326,11.5,11.5,21,0.00,CLR,,0.00,WeatherDisplay:10.37,2013-03-18 17:53:00,
2013-03-18 12:58:00,87.2,42.5,29.74,WNW,299,9.2,9.2,21,0.00,CLR,,0.00,WeatherDisplay:10.37,2013-03-18 17:58:00,
2013-03-18 13:03:00,87.5,42.8,29.75,WNW,294,8.1,8.1,21,0.00,CLR,,0.00,WeatherDisplay:10.37,2013-03-18 18:03:00,
2013-03-18 13:08:00,87.6,44.1,29.74,West,273,12.7,12.7,22,0.00,CLR,,0.00,WeatherDisplay:10.37,2013-03-18 18:08:00,
2013-03-18 13:13:00,88.0,45.6,29.74,NNW,331,10.4,10.4,23,0.00,CLR,,0.00,WeatherDisplay:10.37,2013-03-18 18:13:00,
2013-03-18 13:18:00,88.4,43.5,29.74,NNW,344,9.2,9.2,21,0.00,CLR,,0.00,WeatherDisplay:10.37,2013-03-18 18:18:00,
2013-03-18 13:23:00,88.5,43.6,29.74,NNW,340,3.5,3.5,21,0.00,CLR,,0.00,WeatherDisplay:10.37,2013-03-18 18:23:00,
2013-03-18 13:28:00,88.7,41.1,29.74,WNW,296,8.1,8.1,19,0.00,CLR,,0.00,WeatherDisplay:10.37,2013-03-18 18:28:00,
2013-03-18 13:33:00,89.0,38.5,29.74,North,355,11.5,11.5,17,0.00,CLR,,0.00,WeatherDisplay:10.37,2013-03-18 18:33:00,
2013-03-18 13:38:00,89.3,38.8,29.74,North,355,5.8,5.8,17,0.00,CLR,,0.00,WeatherDisplay:10.37,2013-03-18 18:38:00,
2013-03-18 13:43:00,89.4,38.8,29.73,NNW,331,1.2,1.2,17,0.00,CLR,,0.00,WeatherDisplay:10.37,2013-03-18 18:43:00,
2013-03-18 13:48:00,89.7,39.1,29.73,NW,317,11.0,11.0,17,0.00,CLR,,0.00,WeatherDisplay:10.37,2013-03-18 18:48:00,
2013-03-18 13:53:00,89.8,37.6,29.73,WNW,302,11.5,11.5,16,0.00,CLR,,0.00,WeatherDisplay:10.37,2013-03-18 18:53:00,
2013-03-18 13:58:00,89.9,37.7,29.73,North,350,11.5,11.5,16,0.00,CLR,,0.00,WeatherDisplay:10.37,2013-03-18 18:58:00,
2013-03-18 14:03:00,89.9,36.1,29.73,NW,306,4.6,4.6,15,0.00,CLR,,0.00,WeatherDisplay:10.37,2013-03-18 19:03:00,
2013-03-18 14:08:00,90.1,37.9,29.73,WNW,290,3.5,3.5,16,0.00,CLR,,0.00,WeatherDisplay:10.37,2013-03-18 19:08:00,
2013-03-18 14:13:00,90.6,38.3,29.73,North,5,10.4,10.4,16,0.00,CLR,,0.00,WeatherDisplay:10.37,2013-03-18 19:13:00,
2013-03-18 14:18:00,91.0,36.9,29.73,NW,322,15.0,15.0,15,0.00,CLR,,0.00,WeatherDisplay:10.37,2013-03-18 19:18:00,
2013-03-18 14:23:00,91.2,35.3,29.73,North,360,11.5,11.5,14,0.00,CLR,,0.00,WeatherDisplay:10.37,2013-03-18 19:23:00,
2013-03-18 14:28:00,91.4,35.5,29.72,NNW,345,4.6,4.6,14,0.00,CLR,,0.00,WeatherDisplay:10.37,2013-03-18 19:28:00,
2013-03-18 14:33:00,91.6,35.7,29.72,North,355,5.8,5.8,14,0.00,CLR,,0.00,WeatherDisplay:10.37,2013-03-18 19:33:00,
2013-03-18 14:38:00,91.7,33.9,29.72,WNW,302,11.5,11.5,13,0.00,CLR,,0.00,WeatherDisplay:10.37,2013-03-18 19:38:00,
2013-03-18 14:43:00,91.4,35.5,29.72,NW,321,11.5,11.5,14,0.00,CLR,,0.00,WeatherDisplay:10.37,2013-03-18 19:43:00,
2013-03-18 14:48:00,91.5,33.7,29.72,NNW,348,3.5,4.1,13,0.00,CLR,,0.00,WeatherDisplay:10.37,2013-03-18 19:48:00,
2013-03-18 14:53:00,91.4,31.6,29.72,NW,306,6.9,8.8,12,0.00,CLR,,0.00,WeatherDisplay:10.37,2013-03-18 19:53:00,
2013-03-18 14:58:00,91.3,33.6,29.71,NNW,338,10.4,10.4,13,0.00,CLR,,0.00,WeatherDisplay:10.37,2013-03-18 19:58:00,
2013-03-18 15:03:00,91.3,33.6,29.71,NNW,327,12.7,12.7,13,0.00,CLR,,0.00,WeatherDisplay:10.37,2013-03-18 20:03:00,
2013-03-18 15:08:00,91.6,31.8,29.71,WNW,295,5.8,5.8,12,0.00,CLR,,0.00,WeatherDisplay:10.37,2013-03-18 20:08:00,
2013-03-18 15:13:00,91.5,33.7,29.71,WNW,294,5.8,5.8,13,0.00,CLR,,0.00,WeatherDisplay:10.37,2013-03-18 20:13:00,
2013-03-18 15:18:00,91.2,31.5,29.71,West,280,17.3,17.3,12,0.00,CLR,,0.00,WeatherDisplay:10.37,2013-03-18 20:18:00,
2013-03-18 15:23:00,91.0,33.3,29.70,West,276,6.9,6.9,13,0.00,CLR,,0.00,WeatherDisplay:10.37,2013-03-18 20:23:00,
2013-03-18 15:28:00,91.4,33.6,29.70,WNW,300,9.2,9.2,13,0.00,CLR,,0.00,WeatherDisplay:10.37,2013-03-18 20:28:00,
2013-03-18 15:33:00,91.9,35.9,29.70,North,9,10.4,10.4,14,0.00,CLR,,0.00,WeatherDisplay:10.37,2013-03-18 20:33:00,
2013-03-18 15:38:00,91.9,34.0,29.70,NNW,337,11.5,11.5,13,0.00,CLR,,0.00,WeatherDisplay:10.37,2013-03-18 20:38:00,
2013-03-18 15:43:00,91.7,37.5,29.70,NNW,342,4.6,4.6,15,0.00,CLR,,0.00,WeatherDisplay:10.37,2013-03-18 20:43:00,
2013-03-18 15:48:00,91.6,39.1,29.69,NW,317,25.3,25.3,16,0.00,CLR,,0.00,WeatherDisplay:10.37,2013-03-18 20:48:00,
2013-03-18 15:53:00,91.4,35.5,29.70,NW,325,9.2,9.2,14,0.00,CLR,,0.00,WeatherDisplay:10.37,2013-03-18 20:53:00,
2013-03-18 15:58:00,91.3,38.8,29.70,North,360,11.5,11.5,16,0.00,CLR,,0.00,WeatherDisplay:10.37,2013-03-18 20:58:00,
2013-03-18 16:03:00,91.2,38.7,29.70,NNE,13,10.4,10.4,16,0.00,CLR,,0.00,WeatherDisplay:10.37,2013-03-18 21:03:00,
2013-03-18 16:08:00,91.3,35.4,29.70,WNW,300,3.5,7.3,14,0.00,CLR,,0.00,WeatherDisplay:10.37,2013-03-18 21:08:00,
2013-03-18 16:13:00,91.3,35.4,29.70,NNW,338,11.5,11.5,14,0.00,CLR,,0.00,WeatherDisplay:10.37,2013-03-18 21:13:00,
2013-03-18 16:18:00,90.9,35.1,29.70,NW,323,11.5,11.5,14,0.00,CLR,,0.00,WeatherDisplay:10.37,2013-03-18 21:18:00,
2013-03-18 16:23:00,90.8,35.0,29.70,NW,315,9.0,9.0,14,0.00,CLR,,0.00,WeatherDisplay:10.37,2013-03-18 21:23:00,
2013-03-18 16:28:00,90.8,35.0,29.70,NNW,337,12.7,12.7,14,0.00,CLR,,0.00,WeatherDisplay:10.37,2013-03-18 21:28:00,
2013-03-18 16:32:00,90.7,38.3,29.70,North,5,11.5,11.5,16,0.00,CLR,,0.00,WeatherDisplay:10.37,2013-03-18 21:32:00,
2013-03-18 16:37:00,90.6,38.3,29.71,NNW,348,11.5,11.5,16,0.00,CLR,,0.00,WeatherDisplay:10.37,2013-03-18 21:37:00,
2013-03-18 16:42:00,90.4,38.1,29.71,North,355,4.6,4.6,16,0.00,CLR,,0.00,WeatherDisplay:10.37,2013-03-18 21:42:00,
2013-03-18 16:47:00,90.3,38.0,29.71,NNW,345,6.9,0.0,16,0.00,CLR,,0.00,WeatherDisplay:10.37,2013-03-18 21:47:00,
2013-03-18 16:52:00,90.4,38.1,29.72,North,5,5.8,5.8,16,0.00,CLR,,0.00,WeatherDisplay:10.37,2013-03-18 21:52:00,
2013-03-18 16:57:00,90.3,38.0,29.72,North,360,10.4,10.4,16,0.00,CLR,,0.00,WeatherDisplay:10.37,2013-03-18 21:57:00,
2013-03-18 17:02:00,90.1,37.9,29.72,NNE,18,9.2,0.0,16,0.00,CLR,,0.00,WeatherDisplay:10.37,2013-03-18 22:02:00,
2013-03-18 17:07:00,90.0,37.8,29.72,NNE,13,5.8,5.8,16,0.00,CLR,,0.00,WeatherDisplay:10.37,2013-03-18 22:07:00,
2013-03-18 17:12:00,89.9,37.7,29.72,North,5,11.5,11.5,16,0.00,CLR,,0.00,WeatherDisplay:10.37,2013-03-18 22:12:00,
2013-03-18 17:17:00,89.4,38.8,29.72,North,355,15.0,15.0,17,0.00,CLR,,0.00,WeatherDisplay:10.37,2013-03-18 22:17:00,
2013-03-18 17:22:00,89.4,38.8,29.72,North,9,11.5,11.5,17,0.00,CLR,,0.00,WeatherDisplay:10.37,2013-03-18 22:22:00,
2013-03-18 17:27:00,89.1,37.1,29.73,NNW,348,15.0,15.0,16,0.00,CLR,,0.00,WeatherDisplay:10.37,2013-03-18 22:27:00,
2013-03-18 17:33:00,88.3,38.0,29.73,NNW,339,15.0,15.0,17,0.00,CLR,,0.00,WeatherDisplay:10.37,2013-03-18 22:33:00,
2013-03-18 17:38:00,87.9,37.6,29.73,North,355,9.2,9.2,17,0.00,CLR,,0.00,WeatherDisplay:10.37,2013-03-18 22:38:00,
2013-03-18 17:43:00,87.9,39.1,29.73,North,355,11.5,11.5,18,0.00,CLR,,0.00,WeatherDisplay:10.37,2013-03-18 22:43:00,
2013-03-18 17:48:00,87.9,39.1,29.74,North,360,6.9,6.9,18,0.00,CLR,,0.00,WeatherDisplay:10.37,2013-03-18 22:48:00,
2013-03-18 17:53:00,87.5,40.2,29.74,NNW,330,11.5,11.5,19,0.00,CLR,,0.00,WeatherDisplay:10.37,2013-03-18 22:53:00,
2013-03-18 17:58:00,87.0,39.7,29.74,North,349,15.0,15.0,19,0.00,CLR,,0.00,WeatherDisplay:10.37,2013-03-18 22:58:00,
2013-03-18 18:03:00,86.5,39.3,29.74,North,355,11.5,11.5,19,0.00,CLR,,0.00,WeatherDisplay:10.37,2013-03-18 23:03:00,
2013-03-18 18:08:00,86.1,39.0,29.74,NNW,348,12.7,12.7,19,0.00,CLR,,0.00,WeatherDisplay:10.37,2013-03-18 23:08:00,
2013-03-18 18:13:00,85.5,39.8,29.75,North,350,12.7,12.7,20,0.00,CLR,,0.00,WeatherDisplay:10.37,2013-03-18 23:13:00,
2013-03-18 18:18:00,85.1,39.5,29.75,North,5,11.5,11.5,20,0.00,CLR,,0.00,WeatherDisplay:10.37,2013-03-18 23:18:00,
2013-03-18 18:23:00,84.8,39.3,29.75,North,360,11.5,11.5,20,0.00,CLR,,0.00,WeatherDisplay:10.37,2013-03-18 23:23:00,
2013-03-18 18:28:00,84.5,37.7,29.75,North,355,12.7,12.7,19,0.00,CLR,,0.00,WeatherDisplay:10.37,2013-03-18 23:28:00,
2013-03-18 18:33:00,84.3,37.5,29.75,North,349,6.9,6.9,19,0.00,CLR,,0.00,WeatherDisplay:10.37,2013-03-18 23:33:00,
2013-03-18 18:38:00,84.1,36.0,29.76,North,10,12.7,12.7,18,0.00,CLR,,0.00,WeatherDisplay:10.37,2013-03-18 23:38:00,
2013-03-18 18:43:00,83.8,35.8,29.76,North,355,13.8,13.8,18,0.00,CLR,,0.00,WeatherDisplay:10.37,2013-03-18 23:43:00,
2013-03-18 18:48:00,83.7,37.0,29.76,North,5,9.2,9.2,19,0.00,CLR,,0.00,WeatherDisplay:10.37,2013-03-18 23:48:00,
2013-03-18 18:53:00,83.6,38.3,29.77,North,5,6.9,6.9,20,0.00,CLR,,0.00,WeatherDisplay:10.37,2013-03-18 23:53:00,
2013-03-18 18:58:00,83.3,38.0,29.77,North,360,10.4,10.4,20,0.00,CLR,,0.00,WeatherDisplay:10.37,2013-03-18 23:58:00,
2013-03-18 19:03:00,82.9,37.7,29.77,North,355,12.7,12.7,20,0.00,CLR,,0.00,WeatherDisplay:10.37,2013-03-19 00:03:00,
2013-03-18 19:08:00,82.6,37.5,29.77,North,355,11.5,11.5,20,0.00,CLR,,0.00,WeatherDisplay:10.37,2013-03-19 00:08:00,
2013-03-18 19:13:00,82.2,37.1,29.78,North,5,10.4,10.4,20,0.00,CLR,,0.00,WeatherDisplay:10.37,2013-03-19 00:13:00,
2013-03-18 19:18:00,81.9,38.1,29.78,North,9,4.6,4.6,21,0.00,CLR,,0.00,WeatherDisplay:10.37,2013-03-19 00:18:00,
2013-03-18 19:23:00,81.6,39.1,29.78,North,5,3.5,3.5,22,0.00,CLR,,0.00,WeatherDisplay:10.37,2013-03-19 00:23:00,
2013-03-18 19:28:00,81.3,39.9,29.79,North,5,4.0,4.0,23,0.00,CLR,,0.00,WeatherDisplay:10.37,2013-03-19 00:28:00,
2013-03-18 19:33:00,80.9,40.7,29.79,North,5,7.0,7.0,24,0.00,CLR,,0.00,WeatherDisplay:10.37,2013-03-19 00:33:00,
2013-03-18 19:38:00,80.6,42.5,29.79,North,5,6.0,6.0,26,0.00,CLR,,0.00,WeatherDisplay:10.37,2013-03-19 00:38:00,
2013-03-18 19:43:00,80.3,43.3,29.80,North,360,5.8,5.8,27,0.00,CLR,,0.00,WeatherDisplay:10.37,2013-03-19 00:43:00,
2013-03-18 19:48:00,80.0,44.0,29.80,North,9,6.9,6.9,28,0.00,CLR,,0.00,WeatherDisplay:10.37,2013-03-19 00:48:00,
2013-03-18 19:53:00,79.7,43.7,29.80,North,5,3.5,3.5,28,0.00,CLR,,0.00,WeatherDisplay:10.37,2013-03-19 00:53:00,
2013-03-18 19:58:00,79.5,44.5,29.80,North,360,3.5,3.5,29,0.00,CLR,,0.00,WeatherDisplay:10.37,2013-03-19 00:58:00,
2013-03-18 20:03:00,79.2,44.2,29.80,North,360,3.5,3.5,29,0.00,CLR,,0.00,WeatherDisplay:10.37,2013-03-19 01:03:00,
2013-03-18 20:08:00,79.1,45.0,29.80,North,360,3.5,3.5,30,0.00,CLR,,0.00,WeatherDisplay:10.37,2013-03-19 01:08:00,
2013-03-18 20:13:00,78.7,44.7,29.81,North,360,3.5,3.5,30,0.00,CLR,,0.00,WeatherDisplay:10.37,2013-03-19 01:13:00,
2013-03-18 20:18:00,78.4,44.4,29.81,North,360,4.6,4.6,30,0.00,CLR,,0.00,WeatherDisplay:10.37,2013-03-19 01:18:00,
2013-03-18 20:23:00,78.0,44.0,29.81,North,9,8.1,8.1,30,0.00,CLR,,0.00,WeatherDisplay:10.37,2013-03-19 01:23:00,
2013-03-18 20:28:00,77.6,44.6,29.81,North,5,5.8,5.8,31,0.00,CLR,,0.00,WeatherDisplay:10.37,2013-03-19 01:28:00,
2013-03-18 20:33:00,77.4,44.4,29.82,North,5,5.8,5.8,31,0.00,CLR,,0.00,WeatherDisplay:10.37,2013-03-19 01:33:00,
2013-03-18 20:38:00,77.1,44.1,29.82,North,5,3.5,3.5,31,0.00,CLR,,0.00,WeatherDisplay:10.37,2013-03-19 01:38:00,
2013-03-18 20:43:00,76.8,43.9,29.82,North,5,3.5,3.5,31,0.00,CLR,,0.00,WeatherDisplay:10.37,2013-03-19 01:43:00,
2013-03-18 20:48:00,76.5,44.4,29.82,North,360,7.0,7.0,32,0.00,CLR,,0.00,WeatherDisplay:10.37,2013-03-19 01:48:00,
2013-03-18 20:53:00,76.2,45.0,29.82,North,11,3.5,3.5,33,0.00,CLR,,0.00,WeatherDisplay:10.37,2013-03-19 01:53:00,
2013-03-18 20:58:00,75.9,44.7,29.82,North,11,3.5,3.5,33,0.00,CLR,,0.00,WeatherDisplay:10.37,2013-03-19 01:58:00,
2013-03-18 21:03:00,75.7,45.3,29.82,North,11,3.5,3.5,34,0.00,CLR,,0.00,WeatherDisplay:10.37,2013-03-19 02:03:00,
2013-03-18 21:08:00,75.4,45.1,29.82,North,10,4.6,4.6,34,0.00,CLR,,0.00,WeatherDisplay:10.37,2013-03-19 02:08:00,
2013-03-18 21:13:00,75.1,45.6,29.83,North,10,3.5,3.5,35,0.00,CLR,,0.00,WeatherDisplay:10.37,2013-03-19 02:13:00,
2013-03-18 21:18:00,74.8,46.1,29.83,North,9,5.8,5.8,36,0.00,CLR,,0.00,WeatherDisplay:10.37,2013-03-19 02:18:00,
2013-03-18 21:23:00,74.5,45.8,29.83,North,10,3.5,3.5,36,0.00,CLR,,0.00,WeatherDisplay:10.37,2013-03-19 02:23:00,
2013-03-18 21:28:00,74.3,46.3,29.83,North,10,2.3,2.3,37,0.00,CLR,,0.00,WeatherDisplay:10.37,2013-03-19 02:28:00,
2013-03-18 21:33:00,73.9,46.0,29.83,North,10,5.8,5.8,37,0.00,CLR,,0.00,WeatherDisplay:10.37,2013-03-19 02:33:00,
2013-03-18 21:38:00,73.7,45.8,29.84,North,11,3.5,3.5,37,0.00,CLR,,0.00,WeatherDisplay:10.37,2013-03-19 02:38:00,
2013-03-18 21:43:00,73.3,46.2,29.84,NNE,12,3.5,3.5,38,0.00,CLR,,0.00,WeatherDisplay:10.37,2013-03-19 02:43:00,
2013-03-18 21:48:00,73.0,46.6,29.84,NNE,15,3.5,3.5,39,0.00,CLR,,0.00,WeatherDisplay:10.37,2013-03-19 02:48:00,
2013-03-18 21:53:00,72.7,47.0,29.84,NNE,15,3.5,3.5,40,0.00,CLR,,0.00,WeatherDisplay:10.37,2013-03-19 02:53:00,
2013-03-18 21:58:00,72.4,46.7,29.84,NNE,19,1.2,1.2,40,0.00,CLR,,0.00,WeatherDisplay:10.37,2013-03-19 02:58:00,
2013-03-18 22:03:00,72.2,47.2,29.85,NNE,19,3.5,3.5,41,0.00,CLR,,0.00,WeatherDisplay:10.37,2013-03-19 03:03:00,
2013-03-18 22:08:00,71.9,46.9,29.85,NNE,21,3.5,3.5,41,0.00,CLR,,0.00,WeatherDisplay:10.37,2013-03-19 03:08:00,
2013-03-18 22:13:00,71.7,46.7,29.85,NNE,22,3.5,3.5,41,0.00,CLR,,0.00,WeatherDisplay:10.37,2013-03-19 03:13:00,
2013-03-18 22:18:00,71.4,47.1,29.85,NNE,22,4.6,4.6,42,0.00,CLR,,0.00,WeatherDisplay:10.37,2013-03-19 03:18:00,
2013-03-18 22:23:00,71.2,46.9,29.85,NNE,22,3.5,3.5,42,0.00,CLR,,0.00,WeatherDisplay:10.37,2013-03-19 03:23:00,
2013-03-18 22:28:00,70.9,46.7,29.85,NNE,21,3.5,3.5,42,0.00,CLR,,0.00,WeatherDisplay:10.37,2013-03-19 03:28:00,
2013-03-18 22:33:00,70.6,47.0,29.85,NNE,22,2.3,2.3,43,0.00,CLR,,0.00,WeatherDisplay:10.37,2013-03-19 03:33:00,
2013-03-18 22:38:00,70.4,46.8,29.85,NNE,21,3.5,3.5,43,0.00,CLR,,0.00,WeatherDisplay:10.37,2013-03-19 03:38:00,
2013-03-18 22:43:00,70.1,47.2,29.86,NNE,21,2.3,2.3,44,0.00,CLR,,0.00,WeatherDisplay:10.37,2013-03-19 03:43:00,
2013-03-18 22:48:00,69.9,47.0,29.86,NNE,22,0.0,0.0,44,0.00,CLR,,0.00,WeatherDisplay:10.37,2013-03-19 03:48:00,
2013-03-18 22:53:00,69.7,46.8,29.86,NNE,22,0.0,0.0,44,0.00,CLR,,0.00,WeatherDisplay:10.37,2013-03-19 03:53:00,
2013-03-18 22:58:00,69.3,47.0,29.86,NNE,22,2.3,2.3,45,0.00,CLR,,0.00,WeatherDisplay:10.37,2013-03-19 03:58:00,
2013-03-18 23:00:00,69.2,47.5,29.86,NNE,22,3.5,3.5,46,0.00,CLR,,0.00,WeatherDisplay:10.37,2013-03-19 04:00:00,
2013-03-18 23:01:00,69.1,47.4,29.86,NNE,21,3.5,3.5,46,0.00,CLR,,0.00,WeatherDisplay:10.37,2013-03-19 04:01:00,
2013-03-18 23:06:00,68.7,47.1,29.86,NNE,22,3.5,3.5,46,0.00,CLR,,0.00,WeatherDisplay:10.37,2013-03-19 04:06:00,
2013-03-18 23:11:00,68.5,47.5,29.87,NNE,22,0.0,0.0,47,0.00,CLR,,0.00,WeatherDisplay:10.37,2013-03-19 04:11:00,
2013-03-18 23:16:00,68.3,47.8,29.87,NNE,22,3.5,3.5,48,0.00,CLR,,0.00,WeatherDisplay:10.37,2013-03-19 04:16:00,
2013-03-18 23:21:00,68.0,47.6,29.87,NNE,22,2.0,2.0,48,0.00,CLR,,0.00,WeatherDisplay:10.37,2013-03-19 04:21:00,
2013-03-18 23:26:00,67.8,47.9,29.87,NNE,22,4.6,4.6,49,0.00,CLR,,0.00,WeatherDisplay:10.37,2013-03-19 04:26:00,
2013-03-18 23:31:00,67.6,47.8,29.87,NNE,22,3.5,3.5,49,0.00,CLR,,0.00,WeatherDisplay:10.37,2013-03-19 04:31:00,
2013-03-18 23:36:00,67.4,48.1,29.87,NNE,22,0.0,0.0,50,0.00,CLR,,0.00,WeatherDisplay:10.37,2013-03-19 04:36:00,
2013-03-18 23:42:00,67.2,47.9,29.87,NNE,22,0.0,0.0,50,0.00,CLR,,0.00,WeatherDisplay:10.37,2013-03-19 04:42:00,
2013-03-18 23:47:00,66.9,47.6,29.88,NNE,22,0.0,0.0,50,0.00,CLR,,0.00,WeatherDisplay:10.37,2013-03-19 04:47:00,
2013-03-18 23:52:00,66.7,48.0,29.88,NNE,22,0.0,0.0,51,0.00,CLR,,0.00,WeatherDisplay:10.37,2013-03-19 04:52:00,
2013-03-18 23:57:00,66.4,47.7,29.88,NNE,22,0.0,0.0,51,0.00,CLR,,0.00,WeatherDisplay:10.37,2013-03-19 04:57:00,